createdAt,value
2017-04-11T00:04:46.261Z,3.32
2017-04-11T00:05:44.094Z,6.00
2017-04-11T00:06:41.931Z,4.57
2017-04-11T00:07:39.802Z,2.40
2017-04-11T00:08:37.688Z,2.82
2017-04-11T00:09:35.922Z,3.75
2017-04-11T00:10:33.801Z,3.70
2017-04-11T00:11:31.663Z,2.18
2017-04-11T00:12:29.911Z,2.53
2017-04-11T00:13:27.426Z,3.12
2017-04-11T00:14:25.262Z,3.08
2017-04-11T00:15:23.125Z,2.57
2017-04-11T00:16:21.014Z,2.48
2017-04-11T00:17:18.878Z,6.03
2017-04-11T00:18:16.739Z,2.20
2017-04-11T00:19:14.960Z,3.72
2017-04-11T00:20:12.809Z,2.55
2017-04-11T00:21:10.666Z,4.30
2017-04-11T00:22:08.582Z,3.68
2017-04-11T00:23:06.795Z,11.17
2017-04-11T00:24:04.750Z,4.43
2017-04-11T00:25:03.086Z,2.40
2017-04-11T00:26:00.938Z,2.47
2017-04-11T00:26:58.778Z,6.32
2017-04-11T00:27:56.686Z,4.97
2017-04-11T00:28:54.525Z,5.02
2017-04-11T00:29:52.386Z,3.25
2017-04-11T00:30:50.223Z,2.28
2017-04-11T00:31:48.117Z,4.32
2017-04-11T00:32:45.554Z,2.55
2017-04-11T00:33:43.443Z,2.87
2017-04-11T00:34:41.662Z,4.17
2017-04-11T00:35:39.533Z,4.85
2017-04-11T00:36:37.798Z,3.98
2017-04-11T00:37:35.618Z,4.02
2017-04-11T00:38:33.526Z,3.98
2017-04-11T00:39:31.411Z,5.42
2017-04-11T00:40:29.663Z,5.42
2017-04-11T00:41:27.879Z,4.17
2017-04-11T00:42:25.770Z,6.88
2017-04-11T00:44:30.060Z,5.78
2017-04-11T00:45:27.910Z,7.68
2017-04-11T00:46:25.757Z,5.03
2017-04-11T00:47:23.610Z,5.55
2017-04-11T00:48:21.462Z,4.05
2017-04-11T00:49:19.295Z,3.17
2017-04-11T00:50:16.782Z,6.65
2017-04-11T00:51:14.745Z,4.28
2017-04-11T00:52:12.592Z,4.05
2017-04-11T00:53:10.068Z,9.18
2017-04-11T00:54:08.291Z,4.65
2017-04-11T00:55:06.146Z,5.52
2017-04-11T00:56:04.038Z,6.47
2017-04-11T00:57:01.890Z,5.93
2017-04-11T00:57:59.729Z,4.30
2017-04-11T00:58:57.586Z,3.78
2017-04-11T00:59:55.477Z,4.17
2017-04-11T01:00:53.707Z,5.87
2017-04-11T01:01:51.555Z,5.77
2017-04-11T01:02:49.394Z,6.20
2017-04-11T01:03:47.246Z,4.48
2017-04-11T01:04:45.461Z,6.95
2017-04-11T01:05:43.337Z,6.12
2017-04-11T01:06:41.542Z,4.12
2017-04-11T01:07:39.399Z,5.87
2017-04-11T01:08:37.228Z,4.70
2017-04-11T01:09:35.482Z,4.15
2017-04-11T01:10:33.694Z,4.30
2017-04-11T01:11:31.574Z,6.23
2017-04-11T01:12:29.398Z,4.65
2017-04-11T01:13:27.226Z,5.62
2017-04-11T01:14:25.430Z,3.65
2017-04-11T01:15:23.272Z,4.95
2017-04-11T01:16:21.111Z,3.28
2017-04-11T01:17:19.003Z,2.97
2017-04-11T01:18:16.825Z,4.53
2017-04-11T01:19:15.050Z,6.20
2017-04-11T01:20:12.884Z,3.45
2017-04-11T01:21:10.793Z,4.73
2017-04-11T01:22:09.002Z,4.80
2017-04-11T01:23:06.879Z,5.50
2017-04-11T01:24:04.774Z,4.07
2017-04-11T01:25:02.681Z,4.28
2017-04-11T01:26:00.574Z,3.22
2017-04-11T01:26:58.466Z,3.77
2017-04-11T01:27:56.309Z,4.52
2017-04-11T01:28:54.251Z,4.08
2017-04-11T01:29:52.104Z,3.60
2017-04-11T01:30:49.978Z,3.15
2017-04-11T01:31:47.819Z,4.73
2017-04-11T01:32:45.662Z,4.28
2017-04-11T01:33:43.501Z,3.70
2017-04-11T01:34:41.386Z,3.67
2017-04-11T01:35:39.610Z,6.45
2017-04-11T01:36:37.454Z,5.50
2017-04-11T01:37:35.310Z,2.75
2017-04-11T01:38:33.140Z,4.95
2017-04-11T01:39:31.041Z,3.83
2017-04-11T01:40:28.926Z,3.77
2017-04-11T01:41:26.372Z,4.18
2017-04-11T01:42:24.228Z,3.47
2017-04-11T01:43:22.055Z,3.98
2017-04-11T01:44:19.892Z,2.77
2017-04-11T01:45:17.729Z,3.03
2017-04-11T01:46:15.656Z,3.80
2017-04-11T01:47:13.485Z,2.52
2017-04-11T01:48:11.366Z,5.00
2017-04-11T01:49:09.230Z,3.62
2017-04-11T01:50:07.459Z,5.98
2017-04-11T01:51:05.693Z,5.12
2017-04-11T01:52:03.561Z,4.18
2017-04-11T01:53:01.412Z,2.98
2017-04-11T01:53:59.247Z,2.85
2017-04-11T01:54:57.088Z,3.08
2017-04-11T01:55:54.950Z,3.75
2017-04-11T01:56:52.798Z,3.75
2017-04-11T01:57:50.666Z,3.97
2017-04-11T01:58:48.535Z,3.40
2017-04-11T01:59:46.361Z,4.90
2017-04-11T02:00:44.210Z,5.42
2017-04-11T02:01:42.068Z,3.05
2017-04-11T02:02:39.939Z,7.12
2017-04-11T02:03:37.779Z,4.40
2017-04-11T02:04:35.661Z,3.27
2017-04-11T02:05:33.498Z,3.08
2017-04-11T02:06:31.345Z,3.55
2017-04-11T02:07:29.181Z,3.75
2017-04-11T02:08:27.030Z,3.15
2017-04-11T02:09:24.566Z,4.22
2017-04-11T02:10:22.487Z,2.72
2017-04-11T02:11:20.365Z,4.78
2017-04-11T02:12:18.202Z,4.23
2017-04-11T02:13:16.042Z,3.83
2017-04-11T02:14:13.879Z,4.32
2017-04-11T02:15:11.739Z,6.57
2017-04-11T02:16:09.600Z,5.97
2017-04-11T02:17:07.439Z,5.35
2017-04-11T02:18:05.296Z,3.52
2017-04-11T02:19:03.138Z,4.32
2017-04-11T02:20:00.963Z,3.33
2017-04-11T02:20:58.896Z,3.27
2017-04-11T02:21:56.760Z,5.28
2017-04-11T02:22:54.199Z,3.23
2017-04-11T02:23:52.091Z,5.73
2017-04-11T02:24:49.939Z,5.27
2017-04-11T02:25:47.795Z,4.63
2017-04-11T02:26:45.647Z,3.57
2017-04-11T02:27:43.570Z,4.27
2017-04-11T02:28:41.790Z,9.13
2017-04-11T02:29:39.680Z,4.60
2017-04-11T02:30:38.107Z,5.68
2017-04-11T02:31:35.963Z,3.83
2017-04-11T02:32:33.811Z,6.03
2017-04-11T02:33:31.759Z,4.52
2017-04-11T02:34:29.646Z,5.92
2017-04-11T02:35:27.486Z,5.28
2017-04-11T02:36:25.365Z,4.88
2017-04-11T02:37:23.203Z,6.57
2017-04-11T02:38:21.046Z,4.58
2017-04-11T02:39:19.845Z,4.35
2017-04-11T02:40:17.715Z,9.15
2017-04-11T02:41:15.579Z,4.35
2017-04-11T02:42:13.444Z,4.70
2017-04-11T02:43:11.266Z,4.85
2017-04-11T02:44:09.128Z,6.53
2017-04-11T02:45:07.006Z,7.85
2017-04-11T02:46:04.862Z,9.25
2017-04-11T02:47:03.705Z,8.83
2017-04-11T02:48:01.565Z,10.83
2017-04-11T02:48:59.423Z,5.93
2017-04-11T02:49:57.262Z,4.27
2017-04-11T02:50:55.130Z,4.68
2017-04-11T02:51:53.009Z,9.05
2017-04-11T02:52:50.861Z,5.23
2017-04-11T02:53:48.324Z,8.78
2017-04-11T02:54:46.161Z,5.87
2017-04-11T02:55:43.982Z,5.88
2017-04-11T02:56:41.902Z,5.25
2017-04-11T02:57:39.774Z,5.68
2017-04-11T02:58:37.598Z,5.12
2017-04-11T02:59:35.502Z,5.20
2017-04-11T03:00:33.382Z,7.62
2017-04-11T03:01:31.732Z,8.20
2017-04-11T03:02:29.597Z,5.42
2017-04-11T03:03:27.470Z,4.38
2017-04-11T03:04:25.313Z,5.23
2017-04-11T03:05:23.151Z,6.32
2017-04-11T03:06:21.006Z,6.02
2017-04-11T03:07:18.879Z,4.67
2017-04-11T03:08:16.770Z,5.60
2017-04-11T03:09:14.619Z,5.97
2017-04-11T03:10:12.470Z,4.85
2017-04-11T03:11:10.318Z,7.30
2017-04-11T03:12:08.154Z,5.90
2017-04-11T03:13:06.006Z,4.97
2017-04-11T03:14:03.905Z,6.95
2017-04-11T03:15:01.351Z,5.98
2017-04-11T03:15:59.237Z,8.32
2017-04-11T03:16:57.092Z,6.97
2017-04-11T03:17:54.947Z,5.02
2017-04-11T03:18:52.799Z,10.58
2017-04-11T03:19:50.690Z,5.22
2017-04-11T03:20:48.522Z,8.18
2017-04-11T03:21:45.970Z,4.87
2017-04-11T03:22:43.894Z,7.95
2017-04-11T03:23:41.734Z,9.52
2017-04-11T03:24:39.610Z,8.45
2017-04-11T03:25:37.482Z,6.70
2017-04-11T03:26:35.330Z,6.57
2017-04-11T03:27:33.248Z,5.93
2017-04-11T03:28:31.090Z,6.43
2017-04-11T03:29:28.938Z,4.57
2017-04-11T03:30:26.838Z,6.98
2017-04-11T03:31:24.732Z,4.72
2017-04-11T03:32:22.563Z,8.78
2017-04-11T03:33:20.388Z,4.88
2017-04-11T03:34:18.226Z,4.55
2017-04-11T03:35:16.095Z,9.00
2017-04-11T03:36:14.009Z,7.28
2017-04-11T03:37:11.898Z,5.05
2017-04-11T03:38:09.730Z,6.90
2017-04-11T03:39:07.586Z,8.50
2017-04-11T03:40:05.405Z,9.25
2017-04-11T03:41:03.260Z,6.32
2017-04-11T03:42:01.090Z,7.77
2017-04-11T03:42:58.960Z,6.67
2017-04-11T03:43:56.812Z,4.45
2017-04-11T03:44:54.687Z,5.98
2017-04-11T03:45:52.544Z,6.07
2017-04-11T03:46:50.413Z,6.88
2017-04-11T03:47:48.235Z,7.40
2017-04-11T03:48:46.156Z,8.83
2017-04-11T03:49:43.984Z,7.78
2017-04-11T03:50:41.817Z,9.08
2017-04-11T03:51:40.041Z,6.10
2017-04-11T03:52:37.910Z,6.40
2017-04-11T03:53:35.774Z,5.48
2017-04-11T03:54:33.659Z,6.60
2017-04-11T03:55:31.515Z,5.50
2017-04-11T03:56:29.414Z,8.82
2017-04-11T03:57:27.294Z,6.17
2017-04-11T03:58:25.542Z,6.07
2017-04-11T03:59:23.378Z,8.00
2017-04-11T04:00:21.312Z,7.70
2017-04-11T04:01:19.178Z,6.62
2017-04-11T04:02:17.026Z,6.80
2017-04-11T04:03:14.549Z,5.82
2017-04-11T04:04:12.407Z,7.47
2017-04-11T04:05:10.265Z,6.47
2017-04-11T04:06:08.186Z,5.28
2017-04-11T04:07:06.035Z,7.30
2017-04-11T04:08:03.897Z,8.38
2017-04-11T04:09:01.738Z,8.07
2017-04-11T04:09:59.354Z,7.22
2017-04-11T04:10:57.574Z,9.50
2017-04-11T04:11:55.454Z,6.73
2017-04-11T04:12:53.737Z,5.52
2017-04-11T04:13:51.595Z,4.58
2017-04-11T04:14:49.049Z,8.75
2017-04-11T04:15:46.906Z,7.17
2017-04-11T04:16:44.774Z,9.40
2017-04-11T04:17:42.674Z,10.22
2017-04-11T04:18:40.526Z,5.97
2017-04-11T04:19:38.373Z,10.18
2017-04-11T04:20:36.443Z,8.38
2017-04-11T04:21:34.302Z,11.17
2017-04-11T04:22:32.173Z,5.05
2017-04-11T04:23:30.341Z,7.60
2017-04-11T04:24:28.174Z,5.47
2017-04-11T04:25:26.012Z,5.62
2017-04-11T04:26:23.883Z,8.17
2017-04-11T04:27:21.822Z,7.87
2017-04-11T04:28:19.720Z,5.83
2017-04-11T04:29:17.648Z,5.72
2017-04-11T04:30:15.513Z,10.05
2017-04-11T04:31:13.374Z,6.22
2017-04-11T04:32:11.218Z,5.95
2017-04-11T04:33:09.077Z,6.27
2017-04-11T04:34:06.914Z,6.35
2017-04-11T04:35:04.798Z,6.22
2017-04-11T04:36:02.652Z,6.52
2017-04-11T04:37:00.529Z,5.85
2017-04-11T04:37:58.459Z,6.08
2017-04-11T04:38:56.318Z,6.28
2017-04-11T04:39:54.206Z,6.70
2017-04-11T04:40:52.119Z,10.30
2017-04-11T04:41:49.995Z,9.18
2017-04-11T04:42:47.834Z,8.00
2017-04-11T04:43:45.711Z,7.52
2017-04-11T04:44:43.553Z,8.12
2017-04-11T04:45:41.398Z,14.32
2017-04-11T04:46:39.278Z,9.03
2017-04-11T04:47:37.174Z,8.35
2017-04-11T04:48:35.044Z,8.25
2017-04-11T04:49:32.878Z,9.17
2017-04-11T04:50:30.758Z,7.48
2017-04-11T04:51:28.630Z,11.43
2017-04-11T04:52:26.543Z,9.55
2017-04-11T04:53:24.410Z,9.52
2017-04-11T04:54:22.606Z,10.07
2017-04-11T04:55:20.459Z,8.08
2017-04-11T04:56:18.311Z,7.88
2017-04-11T04:57:16.162Z,10.43
2017-04-11T04:58:14.234Z,7.68
2017-04-11T04:59:12.091Z,9.23
2017-04-11T05:00:09.995Z,13.25
2017-04-11T05:01:07.883Z,8.72
2017-04-11T05:02:05.771Z,8.42
2017-04-11T05:03:03.628Z,10.13
2017-04-11T05:04:01.545Z,8.18
2017-04-11T05:04:59.435Z,8.62
2017-04-11T05:05:57.282Z,7.03
2017-04-11T05:06:55.210Z,10.97
2017-04-11T05:07:53.076Z,10.58
2017-04-11T05:08:50.970Z,7.42
2017-04-11T05:09:48.890Z,14.10
2017-04-11T05:10:46.735Z,8.37
2017-04-11T05:11:44.589Z,8.12
2017-04-11T05:12:42.499Z,7.55
2017-04-11T05:13:40.354Z,8.02
2017-04-11T05:14:38.226Z,10.28
2017-04-11T05:15:36.114Z,7.12
2017-04-11T05:16:33.987Z,6.75
2017-04-11T05:17:31.996Z,8.72
2017-04-11T05:18:29.868Z,11.88
2017-04-11T05:19:27.743Z,7.38
2017-04-11T05:20:25.612Z,11.42
2017-04-11T05:21:23.520Z,9.87
2017-04-11T05:22:21.357Z,8.48
2017-04-11T05:23:19.207Z,13.52
2017-04-11T05:24:17.110Z,10.80
2017-04-11T05:25:14.970Z,8.58
2017-04-11T05:26:12.895Z,10.47
2017-04-11T05:27:10.861Z,9.63
2017-04-11T05:28:08.752Z,11.37
2017-04-11T05:29:06.984Z,7.48
2017-04-11T05:30:04.854Z,10.80
2017-04-11T05:31:03.135Z,9.57
2017-04-11T05:32:00.995Z,8.33
2017-04-11T05:32:58.898Z,9.90
2017-04-11T05:33:56.753Z,10.02
2017-04-11T05:34:54.606Z,8.05
2017-04-11T05:35:52.471Z,13.77
2017-04-11T05:36:50.327Z,9.18
2017-04-11T05:37:48.293Z,9.80
2017-04-11T05:38:46.197Z,9.42
2017-04-11T05:39:44.046Z,13.88
2017-04-11T05:40:42.270Z,10.38
2017-04-11T05:41:41.162Z,12.07
2017-04-11T05:42:39.059Z,11.53
2017-04-11T05:43:36.969Z,10.68
2017-04-11T05:44:34.962Z,12.65
2017-04-11T05:45:33.221Z,7.10
2017-04-11T05:46:31.125Z,8.50
2017-04-11T05:47:29.001Z,7.88
2017-04-11T05:48:26.890Z,9.17
2017-04-11T05:49:24.765Z,10.42
2017-04-11T05:50:22.846Z,10.20
2017-04-11T05:51:20.771Z,8.70
2017-04-11T05:52:18.661Z,8.20
2017-04-11T05:53:16.558Z,10.98
2017-04-11T05:54:14.405Z,8.32
2017-04-11T05:55:12.345Z,9.78
2017-04-11T05:56:10.290Z,11.30
2017-04-11T05:57:08.164Z,10.78
2017-04-11T05:58:06.095Z,9.17
2017-04-11T05:59:04.067Z,12.28
2017-04-11T06:00:01.958Z,9.27
2017-04-11T06:00:59.887Z,9.85
2017-04-11T06:01:58.613Z,9.57
2017-04-11T06:02:56.511Z,8.42
2017-04-11T06:03:54.444Z,7.85
2017-04-11T06:04:51.915Z,12.72
2017-04-11T06:05:49.837Z,9.20
2017-04-11T06:06:47.761Z,8.57
2017-04-11T06:07:45.672Z,9.47
2017-04-11T06:08:43.536Z,10.40
2017-04-11T06:09:41.407Z,8.65
2017-04-11T06:10:39.255Z,8.77
2017-04-11T06:11:37.122Z,7.88
2017-04-11T06:12:34.966Z,14.42
2017-04-11T06:13:32.482Z,9.62
2017-04-11T06:14:30.366Z,8.17
2017-04-11T06:15:28.211Z,9.77
2017-04-11T06:16:26.055Z,7.20
2017-04-11T06:17:23.934Z,9.65
2017-04-11T06:18:21.762Z,8.90
2017-04-11T06:19:19.679Z,7.22
2017-04-11T06:20:17.521Z,8.63
2017-04-11T06:21:15.376Z,12.28
2017-04-11T06:22:13.262Z,12.75
2017-04-11T06:23:11.583Z,9.15
2017-04-11T06:24:09.450Z,12.12
2017-04-11T06:25:08.035Z,12.20
2017-04-11T06:26:05.879Z,6.83
2017-04-11T06:27:03.764Z,12.00
2017-04-11T06:28:01.654Z,9.55
2017-04-11T06:28:59.502Z,7.10
2017-04-11T06:29:57.348Z,11.12
2017-04-11T06:30:55.246Z,9.25
2017-04-11T06:31:53.164Z,10.33
2017-04-11T06:32:51.046Z,12.55
2017-04-11T06:33:48.951Z,9.42
2017-04-11T06:34:47.823Z,7.25
2017-04-11T06:35:45.692Z,8.50
2017-04-11T06:36:43.755Z,10.88
2017-04-11T06:37:41.609Z,7.47
2017-04-11T06:38:39.506Z,10.85
2017-04-11T06:39:37.359Z,9.35
2017-04-11T06:40:35.215Z,13.20
2017-04-11T06:41:33.074Z,9.62
2017-04-11T06:42:30.959Z,8.73
2017-04-11T06:43:29.294Z,8.35
2017-04-11T06:44:27.196Z,6.87
2017-04-11T06:45:25.106Z,8.25
2017-04-11T06:46:22.983Z,10.00
2017-04-11T06:47:20.850Z,11.78
2017-04-11T06:48:18.910Z,9.42
2017-04-11T06:49:16.782Z,7.68
2017-04-11T06:50:15.084Z,7.13
2017-04-11T06:51:13.113Z,8.00
2017-04-11T06:52:11.219Z,9.03
2017-04-11T06:53:09.106Z,8.90
2017-04-11T06:54:07.019Z,8.37
2017-04-11T06:55:04.963Z,7.57
2017-04-11T06:56:02.811Z,7.10
2017-04-11T06:57:00.692Z,8.00
2017-04-11T06:57:58.556Z,11.22
2017-04-11T06:58:56.499Z,8.40
2017-04-11T06:59:54.449Z,12.05
2017-04-11T07:00:52.493Z,10.17
2017-04-11T07:01:50.353Z,7.28
2017-04-11T07:02:53.825Z,10.50
2017-04-11T07:03:51.285Z,7.02
2017-04-11T07:04:48.802Z,6.95
2017-04-11T07:05:46.778Z,11.20
2017-04-11T07:06:44.666Z,9.85
2017-04-11T07:07:42.545Z,9.08
2017-04-11T07:08:40.459Z,11.77
2017-04-11T07:09:38.673Z,11.63
2017-04-11T07:10:36.542Z,8.85
2017-04-11T07:11:34.458Z,9.12
2017-04-11T07:12:32.333Z,9.52
2017-04-11T07:13:29.798Z,13.98
2017-04-11T07:14:27.662Z,10.12
2017-04-11T07:15:25.518Z,10.52
2017-04-11T07:16:23.416Z,11.28
2017-04-11T07:17:21.314Z,11.62
2017-04-11T07:18:19.172Z,9.10
2017-04-11T07:19:17.045Z,9.45
2017-04-11T07:20:14.905Z,9.62
2017-04-11T07:21:12.829Z,8.52
2017-04-11T07:22:10.713Z,8.13
2017-04-11T07:23:08.637Z,6.85
2017-04-11T07:24:06.850Z,9.67
2017-04-11T07:25:04.711Z,10.00
2017-04-11T07:26:02.534Z,9.10
2017-04-11T07:27:00.418Z,9.18
2017-04-11T07:27:58.254Z,7.92
2017-04-11T07:28:56.231Z,9.52
2017-04-11T07:29:53.717Z,8.97
2017-04-11T07:30:51.571Z,12.38
2017-04-11T07:31:49.429Z,7.55
2017-04-11T07:32:47.302Z,7.97
2017-04-11T07:33:45.137Z,8.87
2017-04-11T07:34:43.029Z,12.25
2017-04-11T07:35:40.909Z,9.30
2017-04-11T07:36:38.960Z,9.47
2017-04-11T07:37:36.817Z,6.68
2017-04-11T07:38:34.693Z,8.88
2017-04-11T07:39:32.571Z,7.13
2017-04-11T07:40:30.461Z,6.92
2017-04-11T07:41:28.330Z,7.33
2017-04-11T07:42:26.226Z,7.97
2017-04-11T07:43:24.126Z,7.50
2017-04-11T07:44:21.982Z,8.83
2017-04-11T07:45:19.838Z,6.95
2017-04-11T07:46:17.826Z,9.30
2017-04-11T07:47:15.668Z,9.65
2017-04-11T07:48:13.548Z,8.32
2017-04-11T07:49:11.434Z,10.37
2017-04-11T07:50:09.331Z,9.05
2017-04-11T07:51:07.191Z,10.03
2017-04-11T07:52:05.236Z,9.07
2017-04-11T07:53:03.143Z,6.27
2017-04-11T07:54:01.018Z,7.40
2017-04-11T07:54:59.266Z,5.55
2017-04-11T07:55:57.113Z,8.58
2017-04-11T07:56:54.590Z,8.87
2017-04-11T07:57:52.527Z,9.30
2017-04-11T07:58:50.422Z,6.85
2017-04-11T07:59:48.298Z,6.63
2017-04-11T08:00:46.198Z,7.98
2017-04-11T08:01:44.465Z,6.50
2017-04-11T08:02:42.379Z,12.10
2017-04-11T08:03:39.931Z,8.42
2017-04-11T08:04:37.793Z,7.98
2017-04-11T08:05:35.664Z,5.53
2017-04-11T08:06:33.544Z,5.50
2017-04-11T08:07:31.501Z,9.17
2017-04-11T08:08:29.417Z,6.45
2017-04-11T08:09:27.342Z,8.48
2017-04-11T08:10:24.819Z,7.38
2017-04-11T08:11:22.699Z,12.70
2017-04-11T08:12:20.585Z,7.52
2017-04-11T08:13:18.462Z,10.13
2017-04-11T08:14:16.324Z,8.92
2017-04-11T08:15:14.261Z,10.40
2017-04-11T08:16:12.157Z,6.28
2017-04-11T08:17:10.054Z,5.53
2017-04-11T08:18:07.938Z,9.80
2017-04-11T08:19:05.425Z,6.92
2017-04-11T08:20:03.359Z,5.50
2017-04-11T08:21:01.284Z,6.02
2017-04-11T08:21:59.231Z,6.13
2017-04-11T08:22:57.138Z,7.42
2017-04-11T08:23:55.030Z,6.03
2017-04-11T08:24:52.975Z,4.67
2017-04-11T08:25:50.973Z,7.05
2017-04-11T08:26:48.760Z,4.45
2017-04-11T08:27:46.674Z,7.30
2017-04-11T08:28:44.570Z,5.47
2017-04-11T08:29:42.504Z,7.73
2017-04-11T08:30:40.423Z,4.35
2017-04-11T08:31:38.313Z,5.55
2017-04-11T08:32:36.626Z,4.32
2017-04-11T08:33:34.526Z,5.00
2017-04-11T08:34:32.419Z,5.87
2017-04-11T08:35:30.425Z,4.97
2017-04-11T08:36:28.656Z,5.32
2017-04-11T08:37:26.597Z,4.78
2017-04-11T08:38:24.535Z,6.30
2017-04-11T08:39:22.506Z,5.12
2017-04-11T08:40:20.390Z,5.17
2017-04-11T08:41:18.257Z,6.43
2017-04-11T08:42:16.168Z,7.07
2017-04-11T08:43:14.122Z,7.30
2017-04-11T08:44:12.090Z,8.83
2017-04-11T08:45:09.958Z,6.55
2017-04-11T08:46:07.818Z,9.38
2017-04-11T08:47:05.710Z,6.22
2017-04-11T08:48:03.242Z,8.43
2017-04-11T08:49:01.110Z,5.02
2017-04-11T08:49:59.107Z,5.38
2017-04-11T08:50:57.007Z,4.30
2017-04-11T08:51:54.920Z,4.33
2017-04-11T08:52:52.842Z,6.45
2017-04-11T08:53:51.110Z,4.42
2017-04-11T08:54:48.988Z,9.50
2017-04-11T08:55:47.275Z,4.38
2017-04-11T08:56:45.168Z,4.08
2017-04-11T08:57:43.068Z,4.12
2017-04-11T08:58:40.988Z,3.62
2017-04-11T08:59:38.933Z,4.03
2017-04-11T09:00:36.883Z,4.28
2017-04-11T09:01:34.837Z,4.68
2017-04-11T09:02:33.025Z,5.23
2017-04-11T09:03:30.902Z,4.40
2017-04-11T09:04:29.133Z,4.07
2017-04-11T09:05:27.037Z,4.17
2017-04-11T09:06:25.283Z,3.85
2017-04-11T09:07:23.251Z,3.63
2017-04-11T09:08:21.213Z,4.17
2017-04-11T09:09:19.058Z,4.32
2017-04-11T09:10:16.912Z,4.57
2017-04-11T09:11:14.781Z,5.40
2017-04-11T09:12:12.727Z,4.13
2017-04-11T09:13:10.658Z,4.20
2017-04-11T09:14:08.542Z,4.40
2017-04-11T09:15:06.462Z,3.48
2017-04-11T09:16:04.351Z,3.82
2017-04-11T09:17:02.211Z,4.40
2017-04-11T09:18:00.145Z,4.10
2017-04-11T09:18:58.054Z,3.45
2017-04-11T09:19:55.908Z,2.93
2017-04-11T09:20:53.827Z,2.80
2017-04-11T09:21:51.698Z,4.80
2017-04-11T09:22:49.606Z,3.08
2017-04-11T09:23:47.482Z,3.42
2017-04-11T09:24:45.391Z,5.82
2017-04-11T09:25:43.270Z,3.05
2017-04-11T09:26:41.521Z,3.62
2017-04-11T09:27:39.007Z,5.43
2017-04-11T09:28:36.877Z,3.73
2017-04-11T09:29:34.772Z,4.02
2017-04-11T09:30:33.229Z,3.30
2017-04-11T09:31:31.070Z,3.07
2017-04-11T09:32:29.062Z,2.95
2017-04-11T09:33:26.968Z,4.12
2017-04-11T09:34:24.830Z,7.12
2017-04-11T09:35:22.790Z,2.60
2017-04-11T09:36:20.706Z,2.65
2017-04-11T09:37:18.606Z,3.23
2017-04-11T09:38:16.494Z,2.82
2017-04-11T09:39:14.346Z,4.25
2017-04-11T09:40:12.221Z,3.97
2017-04-11T09:41:10.430Z,3.13
2017-04-11T09:42:08.346Z,3.47
2017-04-11T09:43:06.198Z,2.92
2017-04-11T09:44:04.116Z,4.30
2017-04-11T09:45:01.986Z,1.88
2017-04-11T09:45:59.877Z,3.08
2017-04-11T09:46:57.747Z,3.03
2017-04-11T09:47:55.685Z,3.98
2017-04-11T09:48:53.558Z,4.83
2017-04-11T09:49:51.778Z,3.00
2017-04-11T09:50:49.637Z,3.73
2017-04-11T09:51:47.098Z,4.75
2017-04-11T09:52:44.986Z,4.10
2017-04-11T09:53:42.920Z,5.47
2017-04-11T09:54:40.782Z,3.78
2017-04-11T09:55:38.634Z,3.77
2017-04-11T09:56:36.506Z,3.58
2017-04-11T09:57:34.342Z,3.50
2017-04-11T09:58:32.178Z,4.40
2017-04-11T09:59:30.078Z,3.97
2017-04-11T10:00:27.950Z,5.43
2017-04-11T10:01:25.870Z,3.90
2017-04-11T10:02:23.701Z,2.67
2017-04-11T10:03:21.555Z,5.20
2017-04-11T10:04:19.426Z,5.95
2017-04-11T10:05:17.339Z,4.32
2017-04-11T10:06:15.174Z,4.00
2017-04-11T10:07:13.026Z,3.15
2017-04-11T10:08:10.871Z,3.45
2017-04-11T10:09:08.727Z,3.43
2017-04-11T10:10:06.612Z,3.17
2017-04-11T10:11:04.498Z,3.45
2017-04-11T10:12:02.356Z,6.45
2017-04-11T10:13:00.217Z,5.48
2017-04-11T10:13:58.219Z,3.33
2017-04-11T10:14:56.109Z,3.47
2017-04-11T10:15:53.958Z,2.22
2017-04-11T10:16:52.006Z,2.42
2017-04-11T10:17:49.858Z,2.17
2017-04-11T10:18:47.719Z,1.65
2017-04-11T10:19:45.588Z,2.52
2017-04-11T10:20:43.482Z,4.00
2017-04-11T10:21:41.314Z,3.53
2017-04-11T10:22:39.246Z,2.35
2017-04-11T10:23:37.099Z,3.27
2017-04-11T10:24:34.958Z,5.72
2017-04-11T10:25:32.850Z,5.07
2017-04-11T10:26:30.751Z,5.32
2017-04-11T10:27:28.631Z,4.18
2017-04-11T10:28:26.529Z,3.32
2017-04-11T10:29:24.402Z,4.48
2017-04-11T10:30:22.333Z,5.68
2017-04-11T10:31:20.250Z,7.20
2017-04-11T10:32:18.110Z,5.23
2017-04-11T10:33:16.320Z,3.25
2017-04-11T10:34:14.278Z,7.33
2017-04-11T10:35:12.433Z,3.65
2017-04-11T10:36:10.609Z,6.03
2017-04-11T10:37:08.487Z,4.48
2017-04-11T10:38:06.441Z,4.75
2017-04-11T10:39:04.611Z,4.03
2017-04-11T10:40:02.565Z,4.68
2017-04-11T10:41:00.459Z,5.68
2017-04-11T10:41:58.368Z,7.37
2017-04-11T10:42:55.918Z,5.20
2017-04-11T10:43:54.282Z,4.43
2017-04-11T10:44:52.183Z,3.90
2017-04-11T10:45:50.131Z,3.88
2017-04-11T10:46:47.997Z,4.62
2017-04-11T10:47:45.883Z,4.25
2017-04-11T10:48:43.739Z,4.88
2017-04-11T10:49:41.662Z,5.10
2017-04-11T10:50:39.132Z,5.00
2017-04-11T10:51:37.024Z,3.50
2017-04-11T10:52:34.910Z,4.90
2017-04-11T10:53:32.758Z,3.63
2017-04-11T10:54:30.623Z,3.68
2017-04-11T10:55:28.557Z,3.85
2017-04-11T10:56:26.714Z,3.53
2017-04-11T10:57:24.639Z,3.30
2017-04-11T10:58:22.506Z,1.73
2017-04-11T10:59:20.451Z,1.70
2017-04-11T11:00:18.291Z,2.45
2017-04-11T11:01:16.218Z,4.05
2017-04-11T11:02:14.110Z,2.43
2017-04-11T11:03:11.975Z,3.10
2017-04-11T11:04:10.185Z,2.48
2017-04-11T11:05:08.039Z,2.78
2017-04-11T11:06:05.929Z,2.47
2017-04-11T11:07:03.892Z,5.70
2017-04-11T11:08:02.138Z,6.97
2017-04-11T11:09:00.053Z,2.57
2017-04-11T11:09:57.913Z,3.93
2017-04-11T11:10:55.867Z,2.17
2017-04-11T11:11:54.119Z,2.43
2017-04-11T11:12:52.370Z,3.15
2017-04-11T11:13:50.614Z,2.62
2017-04-11T11:14:48.483Z,3.18
2017-04-11T11:15:46.451Z,2.90
2017-04-11T11:16:44.330Z,3.40
2017-04-11T11:17:42.251Z,2.52
2017-04-11T11:18:40.144Z,2.47
2017-04-11T11:19:38.372Z,3.50
2017-04-11T11:20:36.227Z,3.58
2017-04-11T11:21:34.095Z,2.67
2017-04-11T11:22:32.031Z,2.52
2017-04-11T11:23:30.281Z,3.37
2017-04-11T11:24:28.222Z,2.63
2017-04-11T11:25:26.082Z,4.10
2017-04-11T11:26:23.947Z,6.15
2017-04-11T11:27:21.846Z,4.43
2017-04-11T11:28:20.091Z,4.13
2017-04-11T11:29:18.058Z,2.78
2017-04-11T11:30:16.088Z,2.93
2017-04-11T11:31:13.983Z,5.55
2017-04-11T11:32:11.865Z,2.50
2017-04-11T11:33:09.338Z,3.68
2017-04-11T11:34:07.186Z,8.47
2017-04-11T11:35:05.090Z,4.58
2017-04-11T11:36:03.025Z,3.37
2017-04-11T11:37:00.888Z,2.40
2017-04-11T11:37:58.753Z,10.27
2017-04-11T11:38:56.650Z,4.55
2017-04-11T11:39:54.507Z,3.22
2017-04-11T11:40:52.414Z,3.87
2017-04-11T11:41:50.315Z,3.68
2017-04-11T11:42:48.335Z,3.67
2017-04-11T11:43:46.207Z,2.42
2017-04-11T11:44:44.063Z,2.82
2017-04-11T11:45:41.987Z,1.80
2017-04-11T11:46:40.003Z,2.15
2017-04-11T11:47:38.596Z,2.75
2017-04-11T11:48:36.478Z,2.42
2017-04-11T11:49:34.712Z,1.77
2017-04-11T11:50:32.626Z,3.57
2017-04-11T11:51:30.501Z,3.53
2017-04-11T11:52:28.372Z,2.83
2017-04-11T11:53:26.308Z,3.27
2017-04-11T11:54:24.166Z,2.03
2017-04-11T11:55:22.021Z,2.43
2017-04-11T11:56:19.891Z,3.25
2017-04-11T11:57:17.398Z,2.03
2017-04-11T11:58:15.275Z,2.37
2017-04-11T11:59:13.226Z,3.55
2017-04-11T12:00:11.414Z,2.00
2017-04-11T12:01:09.281Z,2.67
2017-04-11T12:02:07.156Z,4.75
2017-04-11T12:03:05.006Z,1.68
2017-04-11T12:04:02.430Z,1.55
2017-04-11T12:05:00.349Z,1.60
2017-04-11T12:05:58.530Z,2.18
2017-04-11T12:06:56.356Z,2.30
2017-04-11T12:07:54.190Z,1.67
2017-04-11T12:08:52.068Z,1.93
2017-04-11T12:09:49.915Z,2.17
2017-04-11T12:10:47.791Z,3.18
2017-04-11T12:11:45.622Z,2.78
2017-04-11T12:12:43.442Z,2.38
2017-04-11T12:13:41.333Z,2.47
2017-04-11T12:14:39.185Z,7.02
2017-04-11T12:15:37.018Z,1.95
2017-04-11T12:16:34.890Z,2.38
2017-04-11T12:17:32.822Z,3.53
2017-04-11T12:18:30.666Z,2.58
2017-04-11T12:19:28.527Z,3.02
2017-04-11T12:20:26.393Z,3.58
2017-04-11T12:21:24.251Z,2.67
2017-04-11T12:22:22.126Z,2.38
2017-04-11T12:23:19.955Z,2.05
2017-04-11T12:24:17.794Z,2.57
2017-04-11T12:25:15.627Z,3.93
2017-04-11T12:26:13.479Z,2.62
2017-04-11T12:27:11.362Z,2.43
2017-04-11T12:28:09.258Z,2.78
2017-04-11T12:29:07.099Z,3.85
2017-04-11T12:30:05.011Z,3.78
2017-04-11T12:31:02.862Z,2.22
2017-04-11T12:32:00.705Z,2.42
2017-04-11T12:32:58.542Z,2.53
2017-04-11T12:33:56.447Z,2.18
2017-04-11T12:34:54.681Z,2.22
2017-04-11T12:35:52.583Z,2.52
2017-04-11T12:36:50.437Z,2.85
2017-04-11T12:37:48.654Z,2.73
2017-04-11T12:38:46.502Z,3.10
2017-04-11T12:39:44.397Z,2.15
2017-04-11T12:40:42.647Z,2.42
2017-04-11T12:41:40.480Z,2.95
2017-04-11T12:42:38.322Z,3.80
2017-04-11T12:43:36.221Z,3.22
2017-04-11T12:44:33.668Z,2.68
2017-04-11T12:45:31.593Z,2.45
2017-04-11T12:46:29.470Z,3.17
2017-04-11T12:47:27.306Z,2.52
2017-04-11T12:48:25.153Z,2.88
2017-04-11T12:49:23.039Z,2.53
2017-04-11T12:50:20.886Z,2.13
2017-04-11T12:51:18.771Z,3.60
2017-04-11T12:52:17.042Z,2.27
2017-04-11T12:53:14.899Z,2.07